Αναφορές METAR Αεροδρομίων

 

LGTS - THESSALONIKI - GREECE
Ενημερώθηκε: 20/04/2024 22:50
Μερικώς νεφελώδης
Μερικώς νεφελώδης
 Ανεμος από ΑΒΑ
Ανεμος: ΑΒΑ 11 km/h
Θερμοκρασία: 14°C
Σημ. Δρόσου: 11°C
Υγρασία: 82%
Βαρόμετρο: 1009 hPa
Clouds: Μερικώς νεφελώδης
Visibility: 10 km
Cloud details: Αραιές Νεφώσεις 549 m
Μερικώς νεφελώδης 914 m
2024/04/20 19:50 LGTS 201950Z 06006KT 9999 FEW018CB SCT030 14/11 Q1009 NOSIG
LGLR - LARTISA - GREECE
Ενημερώθηκε: 20/04/2024 22:50
Μερικώς νεφελώδης
Μερικώς νεφελώδης
 Ανεμος από Α
Ανεμος: Α 7 km/h
Θερμοκρασία: 12°C
Σημ. Δρόσου: 7°C
Υγρασία: 72%
Βαρόμετρο: 1009 hPa
Clouds: Μερικώς νεφελώδης
Visibility: 10 km
Cloud details: Μερικώς νεφελώδης 1219 m
2024/04/20 19:50 LGLR 201950Z 08004KT 9999 SCT040 12/07 Q1009 BLU
 
LGKZ - KOZANI - GREECE
Ενημερώθηκε: 20/04/2024 22:50

 Ανεμος από varies
Ανεμος: varies 6 km/h
Θερμοκρασία: 12°C
Σημ. Δρόσου: 0°C
Υγρασία: 44%
Βαρόμετρο: 1010 hPa
2024/04/20 19:50 LGKZ 201950Z AUTO VRB03KT //// // ////// 12/M00 Q1010 RE//
LGKV - KAVALA - GREECE
Ενημερώθηκε: 20/04/2024 22:50
Σχεδόν νεφελώδης
Σχεδόν νεφελώδης
 Ανεμος από ΒΑ
Ανεμος: ΒΑ 7 km/h
Θερμοκρασία: 14°C
Σημ. Δρόσου: 7°C
Υγρασία: 63%
Βαρόμετρο: 1009 hPa
Clouds: Σχεδόν νεφελώδης
Visibility: 10 km
Cloud details: Αραιές Νεφώσεις 610 m
Μερικώς νεφελώδης 914 m
Σχεδόν νεφελώδης 2438 m
2024/04/20 19:50 LGKV 201950Z 04004KT 9999 FEW020 SCT030 BKN080 14/07 Q1009
 
LGIO - IOANNINA - GREECE
Ενημερώθηκε: 20/04/2024 22:50

 Ανεμος από varies
Ανεμος: varies 4 km/h
Θερμοκρασία: 7°C
Σημ. Δρόσου: 4°C
Υγρασία: 81%
Βαρόμετρο: 1012 hPa
2024/04/20 19:50 LGIO 201950Z AUTO VRB02KT //// // ////// 07/04 Q1012 RE//
LGBL - BOLOS - GREECE
Ενημερώθηκε: 20/04/2024 22:50
Αραιές Νεφώσεις
Αραιές Νεφώσεις
 Ανεμος από ΒΒΔ
Ανεμος: ΒΒΔ 9 km/h
Θερμοκρασία: 12°C
Σημ. Δρόσου: 8°C
Υγρασία: 77%
Βαρόμετρο: 1009 hPa
Clouds: Αραιές Νεφώσεις
Visibility: 10 km
Cloud details: Αραιές Νεφώσεις 914 m
2024/04/20 19:50 LGBL 201950Z 33005KT 9999 FEW030 12/08 Q1009
 
LGMT - MITILINI - GREECE
Ενημερώθηκε: 20/04/2024 22:50
Αραιές Νεφώσεις
Αραιές Νεφώσεις
 Ανεμος από varies
Ανεμος: varies 4 km/h
Θερμοκρασία: 12°C
Σημ. Δρόσου: 9°C
Υγρασία: 82%
Βαρόμετρο: 1011 hPa
Clouds: Αραιές Νεφώσεις
Visibility: 10 km
Cloud details: Αραιές Νεφώσεις 914 m
2024/04/20 19:50 LGMT 201950Z VRB02KT 9999 FEW030 12/09 Q1011
LGAV - ATHENS - GREECE
Ενημερώθηκε: 20/04/2024 23:20
Μερικώς νεφελώδης
Μερικώς νεφελώδης
 Ανεμος από varies
Ανεμος: varies 4 km/h
Θερμοκρασία: 14°C
Σημ. Δρόσου: 9°C
Υγρασία: 72%
Βαρόμετρο: 1012 hPa
Clouds: Μερικώς νεφελώδης
Visibility: 10 km
Cloud details: Αραιές Νεφώσεις 762 m
Μερικώς νεφελώδης 1372 m
2024/04/20 20:20 LGAV 202020Z VRB02KT 9999 FEW025 SCT045 14/09 Q1012 NOSIG
 
LGRP - RODOS - GREECE
Ενημερώθηκε: 20/04/2024 23:20
Μερικώς νεφελώδης
Μερικώς νεφελώδης
 Ανεμος από Δ
Ανεμος: Δ 15 km/h
Θερμοκρασία: 17°C
Σημ. Δρόσου: 11°C
Υγρασία: 68%
Βαρόμετρο: 1011 hPa
Clouds: Μερικώς νεφελώδης
Visibility: 10 km
Cloud details: Μερικώς νεφελώδης 549 m
2024/04/20 20:20 LGRP 202020Z 27008KT 9999 SCT018 17/11 Q1011 NOSIG
LGIR - HRAKLIO/KRITI - GREECE
Ενημερώθηκε: 20/04/2024 23:20
Αραιές Νεφώσεις
Αραιές Νεφώσεις
 Ανεμος από Δ
Ανεμος: Δ 15 km/h
Θερμοκρασία: 17°C
Σημ. Δρόσου: 12°C
Υγρασία: 73%
Βαρόμετρο: 1014 hPa
Clouds: Αραιές Νεφώσεις
Visibility: 10 km
Cloud details: Αραιές Νεφώσεις 610 m
2024/04/20 20:20 LGIR 202020Z 28008KT 9999 FEW020 17/12 Q1014 NOSIG
 
LGMK - MIKONOS - GREECE
Ενημερώθηκε: 20/04/2024 22:20
Αραιές Νεφώσεις
Αραιές Νεφώσεις
 Ανεμος από Α
Ανεμος: Α 7 km/h
Θερμοκρασία: 14°C
Σημ. Δρόσου: 6°C
Υγρασία: 59%
Βαρόμετρο: 1011 hPa
Clouds: Αραιές Νεφώσεις
Visibility: 10 km
Cloud details: Αραιές Νεφώσεις 549 m
2024/04/20 19:20 LGMK 201920Z 10004KT 9999 FEW018 14/06 Q1011
LGKR - KERKIRA - GREECE
Ενημερώθηκε: 20/04/2024 23:20
Συννεφιά
Συννεφιά
 Ανεμος από ΝΝΑ
Ανεμος: ΝΝΑ 6 km/h
Θερμοκρασία: 15°C
Σημ. Δρόσου: 8°C
Υγρασία: 63%
Βαρόμετρο: 1010 hPa
Clouds: Συννεφιά
Visibility: 10 km
Cloud details: Αραιές Νεφώσεις 610 m
Μερικώς νεφελώδης 1067 m
Συννεφιά 2438 m
2024/04/20 20:20 LGKR 202020Z 15003KT 9999 FEW020 SCT035 OVC080 15/08 Q1010 NOSIG